createdAt,value
2023-04-22T00:02:13.268Z,69.44
2023-04-22T00:04:41.856Z,69.18
2023-04-22T00:07:08.894Z,69.53
2023-04-22T00:09:36.162Z,69.73
2023-04-22T00:12:03.084Z,69.45
2023-04-22T00:14:29.705Z,69.38
2023-04-22T00:16:56.648Z,69.54
2023-04-22T00:19:23.473Z,69.29
2023-04-22T00:21:50.626Z,69.57
2023-04-22T00:24:17.204Z,69.28
2023-04-22T00:26:43.844Z,69.15
2023-04-22T00:29:10.479Z,69.33
2023-04-22T00:31:37.104Z,69.45
2023-04-22T00:34:03.712Z,69.16
2023-04-22T00:36:31.419Z,69.28
2023-04-22T00:38:58.170Z,69.13
2023-04-22T00:41:25.097Z,69.37
2023-04-22T00:43:52.539Z,68.41
2023-04-22T00:46:21.004Z,69.29
2023-04-22T00:48:48.457Z,69.10
2023-04-22T00:51:15.030Z,69.17
2023-04-22T00:53:41.671Z,69.21
2023-04-22T00:56:08.359Z,69.54
2023-04-22T00:58:35.168Z,69.23
2023-04-22T01:01:02.216Z,69.32
2023-04-22T01:03:30.795Z,69.07
2023-04-22T01:05:58.499Z,69.15
2023-04-22T01:08:28.781Z,69.46
2023-04-22T01:10:57.045Z,69.14
2023-04-22T01:13:24.209Z,69.51
2023-04-22T01:15:52.987Z,69.32
2023-04-22T01:18:20.010Z,69.42
2023-04-22T01:20:46.703Z,69.30
2023-04-22T01:23:22.402Z,69.27
2023-04-22T01:25:49.458Z,69.62
2023-04-22T01:28:17.050Z,69.54
2023-04-22T01:30:44.001Z,69.34
2023-04-22T01:33:11.778Z,69.48
2023-04-22T01:35:39.095Z,69.45
2023-04-22T01:38:08.920Z,69.98
2023-04-22T01:40:35.584Z,69.36
2023-04-22T01:43:02.887Z,69.37
2023-04-22T01:45:29.945Z,69.06
2023-04-22T01:47:56.552Z,69.58
2023-04-22T01:50:23.884Z,69.34
2023-04-22T01:52:50.747Z,69.08
2023-04-22T01:55:17.458Z,69.39
2023-04-22T01:57:44.231Z,69.87
2023-04-22T02:00:11.694Z,69.39
2023-04-22T02:02:38.394Z,69.73
2023-04-22T02:05:07.405Z,69.51
2023-04-22T02:07:34.503Z,69.52
2023-04-22T02:10:02.147Z,70.08
2023-04-22T02:12:28.921Z,69.71
2023-04-22T02:14:55.647Z,69.37
2023-04-22T02:17:22.381Z,69.71
2023-04-22T02:19:48.965Z,69.96
2023-04-22T02:22:15.883Z,69.31
2023-04-22T02:24:43.150Z,70.03
2023-04-22T02:27:09.836Z,69.83
2023-04-22T02:29:36.420Z,70.03
2023-04-22T02:32:03.001Z,69.90
2023-04-22T02:34:29.515Z,70.06
2023-04-22T02:36:56.359Z,70.54
2023-04-22T02:39:22.911Z,70.84
2023-04-22T02:41:49.455Z,70.00
2023-04-22T02:44:15.983Z,70.01
2023-04-22T02:46:42.596Z,70.40
2023-04-22T02:49:09.173Z,70.30
2023-04-22T02:51:38.571Z,70.99
2023-04-22T02:54:05.337Z,69.98
2023-04-22T02:56:31.887Z,70.47
2023-04-22T02:58:58.442Z,70.04
2023-04-22T03:01:25.062Z,70.79
2023-04-22T03:03:51.887Z,70.77
2023-04-22T03:06:18.871Z,70.34
2023-04-22T03:08:45.500Z,70.55
2023-04-22T03:11:13.886Z,70.67
2023-04-22T03:13:40.689Z,70.22
2023-04-22T03:16:07.572Z,70.29
2023-04-22T03:18:34.280Z,70.08
2023-04-22T03:21:01.016Z,70.10
2023-04-22T03:23:27.559Z,70.17
2023-04-22T03:25:54.090Z,70.04
2023-04-22T03:28:20.704Z,69.63
2023-04-22T03:30:48.496Z,70.21
2023-04-22T03:33:15.170Z,69.72
2023-04-22T03:35:41.807Z,70.08
2023-04-22T03:38:08.509Z,70.21
2023-04-22T03:40:35.090Z,69.85
2023-04-22T03:43:01.642Z,70.20
2023-04-22T03:45:28.765Z,69.50
2023-04-22T03:47:55.691Z,69.65
2023-04-22T03:50:22.312Z,70.22
2023-04-22T03:52:48.895Z,69.29
2023-04-22T03:55:15.584Z,69.33
2023-04-22T03:57:42.149Z,69.61
2023-04-22T04:00:09.391Z,70.04
2023-04-22T04:02:36.048Z,69.59
2023-04-22T04:05:02.959Z,70.26
2023-04-22T04:07:29.878Z,69.31
2023-04-22T04:09:56.481Z,69.81
2023-04-22T04:12:22.983Z,70.06
2023-04-22T04:14:49.592Z,70.14
2023-04-22T04:17:16.664Z,69.84
2023-04-22T04:19:43.361Z,69.79
2023-04-22T04:22:10.690Z,69.25
2023-04-22T04:24:37.292Z,69.35
2023-04-22T04:27:04.027Z,69.49
2023-04-22T04:29:30.547Z,69.44
2023-04-22T04:31:57.093Z,69.46
2023-04-22T04:34:23.665Z,69.90
2023-04-22T04:36:50.683Z,69.74
2023-04-22T04:39:17.539Z,69.64
2023-04-22T04:41:45.135Z,69.74
2023-04-22T04:44:12.233Z,69.93
2023-04-22T04:46:38.966Z,69.85
2023-04-22T04:49:05.559Z,69.65
2023-04-22T04:51:33.299Z,69.72
2023-04-22T04:53:59.833Z,70.01
2023-04-22T04:56:26.416Z,69.61
2023-04-22T04:58:52.995Z,70.24
2023-04-22T05:01:19.830Z,69.68
2023-04-22T05:03:46.613Z,69.66
2023-04-22T05:06:13.443Z,69.94
2023-04-22T05:08:40.100Z,69.78
2023-04-22T05:11:06.795Z,69.41
2023-04-22T05:13:33.423Z,69.70
2023-04-22T05:16:00.207Z,69.79
2023-04-22T05:18:26.906Z,69.41
2023-04-22T05:20:53.570Z,69.32
2023-04-22T05:23:20.204Z,69.96
2023-04-22T05:25:46.806Z,69.65
2023-04-22T05:28:13.408Z,69.85
2023-04-22T05:30:39.917Z,69.76
2023-04-22T05:33:08.564Z,68.98
2023-04-22T05:35:35.659Z,69.60
2023-04-22T05:38:03.088Z,69.82
2023-04-22T05:40:29.685Z,69.05
2023-04-22T05:42:57.225Z,69.74
2023-04-22T05:45:23.784Z,69.89
2023-04-22T05:47:50.410Z,69.54
2023-04-22T05:50:17.021Z,69.98
2023-04-22T05:52:43.606Z,69.04
2023-04-22T05:55:10.221Z,70.16
2023-04-22T05:57:36.824Z,68.91
2023-04-22T06:00:04.886Z,69.27
2023-04-22T06:02:31.680Z,69.20
2023-04-22T06:04:58.771Z,69.02
2023-04-22T06:07:25.682Z,69.74
2023-04-22T06:10:02.196Z,69.75
2023-04-22T06:12:30.691Z,69.43
2023-04-22T06:14:57.227Z,69.35
2023-04-22T06:17:23.859Z,69.19
2023-04-22T06:19:50.472Z,69.61
2023-04-22T06:22:17.010Z,69.96
2023-04-22T06:24:43.911Z,69.76
2023-04-22T06:27:11.330Z,69.80
2023-04-22T06:29:38.118Z,69.96
2023-04-22T06:32:04.848Z,70.06
2023-04-22T06:34:31.426Z,69.79
2023-04-22T06:36:58.052Z,69.91
2023-04-22T06:39:24.620Z,70.19
2023-04-22T06:41:51.186Z,69.67
2023-04-22T06:44:17.748Z,69.73
2023-04-22T06:46:44.316Z,69.00
2023-04-22T06:49:10.910Z,68.79
2023-04-22T06:51:37.681Z,69.44
2023-04-22T06:54:04.342Z,68.95
2023-04-22T06:56:31.055Z,69.12
2023-04-22T06:58:57.586Z,68.45
2023-04-22T07:01:24.460Z,68.22
2023-04-22T07:03:51.211Z,66.71
2023-04-22T07:06:17.948Z,66.84
2023-04-22T07:08:44.651Z,66.69
2023-04-22T07:11:13.193Z,65.56
2023-04-22T07:13:41.398Z,64.91
2023-04-22T07:16:08.106Z,65.72
2023-04-22T07:18:35.962Z,64.64
2023-04-22T07:21:02.647Z,64.55
2023-04-22T07:23:29.297Z,64.52
2023-04-22T07:25:55.841Z,64.91
2023-04-22T07:28:22.379Z,63.72
2023-04-22T07:30:48.958Z,65.05
2023-04-22T07:33:15.503Z,65.31
2023-04-22T07:35:42.230Z,64.49
2023-04-22T07:38:09.849Z,65.54
2023-04-22T07:40:37.224Z,64.21
2023-04-22T07:43:05.725Z,64.61
2023-04-22T07:45:33.253Z,65.95
2023-04-22T07:47:59.990Z,65.00
2023-04-22T07:50:26.690Z,65.49
2023-04-22T07:52:53.262Z,65.34
2023-04-22T07:55:19.805Z,65.66
2023-04-22T07:57:46.400Z,65.53
2023-04-22T08:00:14.602Z,65.41
2023-04-22T08:02:41.492Z,65.56
2023-04-22T08:05:08.407Z,64.95
2023-04-22T08:07:35.037Z,64.01
2023-04-22T08:10:01.633Z,64.69
2023-04-22T08:12:29.219Z,64.21
2023-04-22T08:14:55.877Z,63.81
2023-04-22T08:17:22.964Z,63.55
2023-04-22T08:19:50.196Z,61.94
2023-04-22T08:22:18.619Z,60.90
2023-04-22T08:24:45.174Z,59.69
2023-04-22T08:27:11.819Z,60.14
2023-04-22T08:29:38.886Z,59.78
2023-04-22T08:32:05.821Z,59.13
2023-04-22T08:34:32.518Z,59.14
2023-04-22T08:36:59.292Z,58.76
2023-04-22T08:39:25.923Z,56.67
2023-04-22T08:41:53.376Z,57.20
2023-04-22T08:44:21.898Z,56.54
2023-04-22T08:46:49.175Z,56.15
2023-04-22T08:49:16.360Z,55.57
2023-04-22T08:51:44.161Z,56.04
2023-04-22T08:54:11.429Z,55.00
2023-04-22T08:56:43.447Z,55.24
2023-04-22T08:59:11.587Z,55.22
2023-04-22T09:01:41.361Z,53.22
2023-04-22T09:04:09.673Z,54.06
2023-04-22T09:06:37.907Z,53.94
2023-04-22T09:09:04.606Z,53.75
2023-04-22T09:11:32.559Z,53.79
2023-04-22T09:13:59.182Z,53.24
2023-04-22T09:16:25.820Z,52.89
2023-04-22T09:18:52.393Z,52.95
2023-04-22T09:21:19.059Z,53.06
2023-04-22T09:26:24.464Z,53.07
2023-04-22T09:28:54.854Z,52.25
2023-04-22T09:31:22.805Z,52.45
2023-04-22T09:33:52.944Z,52.02
2023-04-22T09:36:26.164Z,50.67
2023-04-22T09:38:54.695Z,50.76
2023-04-22T09:41:39.277Z,49.98
2023-04-22T09:44:11.101Z,50.34
2023-04-22T09:46:37.834Z,50.06
2023-04-22T09:49:04.383Z,50.25
2023-04-22T09:51:32.007Z,49.69
2023-04-22T09:56:52.253Z,49.63
2023-04-22T09:59:24.031Z,48.82
2023-04-22T10:01:53.870Z,49.85
2023-04-22T10:04:23.356Z,49.76
2023-04-22T10:06:50.116Z,49.04
2023-04-22T10:09:20.118Z,48.37
2023-04-22T10:11:48.070Z,49.00
2023-04-22T10:14:14.840Z,49.52
2023-04-22T10:16:45.320Z,49.54
2023-04-22T10:19:16.969Z,50.13
2023-04-22T10:21:45.892Z,50.45
2023-04-22T10:24:18.065Z,50.05
2023-04-22T10:29:21.791Z,49.98
2023-04-22T10:34:32.642Z,49.83
2023-04-22T10:39:38.571Z,48.37
2023-04-22T10:42:11.815Z,48.53
2023-04-22T10:47:38.975Z,46.62
2023-04-22T10:52:52.859Z,45.65
2023-04-22T10:55:19.656Z,46.24
2023-04-22T10:57:47.975Z,45.95
2023-04-22T11:00:22.628Z,44.66
2023-04-22T11:03:12.570Z,45.16
2023-04-22T11:05:40.092Z,46.40
2023-04-22T11:10:50.868Z,45.65
2023-04-22T11:13:21.287Z,44.88
2023-04-22T11:15:51.803Z,44.29
2023-04-22T11:18:22.561Z,44.92
2023-04-22T11:20:50.803Z,45.33
2023-04-22T11:23:19.761Z,44.87
2023-04-22T11:25:46.629Z,44.29
2023-04-22T11:28:13.599Z,44.72
2023-04-22T11:30:40.282Z,44.55
2023-04-22T11:33:06.918Z,44.33
2023-04-22T11:35:35.196Z,43.74
2023-04-22T11:38:04.201Z,44.51
2023-04-22T11:43:08.985Z,44.50
2023-04-22T11:45:36.822Z,45.33
2023-04-22T11:48:05.946Z,44.34
2023-04-22T11:50:35.364Z,44.63
2023-04-22T11:53:04.123Z,44.17
2023-04-22T11:55:34.782Z,44.10
2023-04-22T11:58:11.642Z,44.09
2023-04-22T12:00:43.736Z,44.48
2023-04-22T12:03:21.176Z,44.23
2023-04-22T12:05:52.929Z,44.46
2023-04-22T12:10:59.055Z,43.94
2023-04-22T12:13:28.890Z,43.70
2023-04-22T12:15:57.727Z,43.74
2023-04-22T12:18:48.245Z,43.34
2023-04-22T12:21:16.799Z,43.50
2023-04-22T12:23:45.916Z,43.11
2023-04-22T12:26:13.634Z,42.18
2023-04-22T12:28:41.156Z,42.74
2023-04-22T12:31:09.143Z,42.42
2023-04-22T12:33:37.071Z,41.82
2023-04-22T12:36:04.711Z,42.37
2023-04-22T12:38:31.437Z,42.79
2023-04-22T12:40:58.723Z,41.98
2023-04-22T12:43:26.065Z,42.38
2023-04-22T12:45:52.839Z,42.83
2023-04-22T12:48:19.458Z,42.67
2023-04-22T12:50:46.393Z,42.26
2023-04-22T12:53:13.051Z,42.56
2023-04-22T12:55:39.872Z,42.01
2023-04-22T12:58:06.496Z,42.03
2023-04-22T13:00:33.399Z,42.59
2023-04-22T13:03:00.603Z,42.41
2023-04-22T13:05:27.429Z,41.85
2023-04-22T13:08:05.915Z,42.15
2023-04-22T13:10:33.853Z,41.80
2023-04-22T13:13:16.179Z,42.61
2023-04-22T13:15:54.128Z,42.48
2023-04-22T13:18:22.553Z,43.07
2023-04-22T13:20:49.250Z,42.85
2023-04-22T13:23:17.167Z,42.78
2023-04-22T13:25:44.111Z,42.94
2023-04-22T13:28:11.563Z,42.85
2023-04-22T13:30:38.637Z,42.65
2023-04-22T13:33:05.394Z,42.85
2023-04-22T13:35:31.988Z,42.37
2023-04-22T13:37:59.137Z,42.41
2023-04-22T13:40:27.499Z,42.96
2023-04-22T13:42:54.657Z,43.70
2023-04-22T13:45:21.420Z,42.16
2023-04-22T13:47:48.072Z,42.83
2023-04-22T13:50:14.669Z,41.82
2023-04-22T13:52:41.498Z,43.03
2023-04-22T13:55:08.821Z,42.42
2023-04-22T13:57:35.502Z,41.69
2023-04-22T14:00:02.224Z,41.74
2023-04-22T14:02:28.918Z,42.02
2023-04-22T14:04:55.580Z,42.18
2023-04-22T14:07:22.277Z,42.23
2023-04-22T14:09:48.851Z,41.99
2023-04-22T14:12:15.453Z,42.71
2023-04-22T14:14:42.313Z,42.35
2023-04-22T14:17:09.064Z,42.26
2023-04-22T14:19:39.626Z,41.93
2023-04-22T14:22:06.774Z,42.36
2023-04-22T14:24:33.415Z,42.63
2023-04-22T14:27:01.826Z,41.96
2023-04-22T14:29:29.891Z,42.26
2023-04-22T14:31:57.740Z,42.93
2023-04-22T14:34:24.527Z,42.50
2023-04-22T14:36:51.117Z,42.99
2023-04-22T14:39:17.655Z,43.60
2023-04-22T14:41:44.339Z,43.18
2023-04-22T14:44:10.945Z,42.03
2023-04-22T14:46:37.605Z,43.12
2023-04-22T14:49:04.308Z,42.84
2023-04-22T14:51:31.688Z,42.98
2023-04-22T14:53:58.307Z,41.48
2023-04-22T14:56:25.322Z,41.94
2023-04-22T14:58:51.857Z,42.13
2023-04-22T15:01:18.803Z,42.50
2023-04-22T15:03:45.545Z,41.90
2023-04-22T15:06:12.215Z,42.42
2023-04-22T15:08:40.032Z,42.85
2023-04-22T15:11:06.883Z,42.64
2023-04-22T15:13:33.472Z,42.55
2023-04-22T15:16:00.157Z,42.18
2023-04-22T15:18:26.899Z,42.86
2023-04-22T15:20:53.422Z,42.81
2023-04-22T15:23:19.975Z,42.61
2023-04-22T15:25:46.544Z,43.20
2023-04-22T15:28:13.858Z,43.03
2023-04-22T15:30:40.791Z,42.83
2023-04-22T15:33:07.416Z,42.49
2023-04-22T15:35:33.989Z,42.00
2023-04-22T15:38:01.476Z,41.84
2023-04-22T15:40:28.034Z,41.99
2023-04-22T15:42:54.592Z,42.96
2023-04-22T15:45:21.447Z,42.28
2023-04-22T15:47:48.102Z,42.90
2023-04-22T15:50:15.445Z,42.86
2023-04-22T15:52:42.074Z,42.44
2023-04-22T15:55:09.419Z,43.13
2023-04-22T15:57:36.202Z,42.63
2023-04-22T16:00:13.509Z,43.17
2023-04-22T16:02:42.151Z,43.15
2023-04-22T16:05:09.341Z,43.26
2023-04-22T16:07:35.948Z,43.29
2023-04-22T16:10:02.892Z,43.81
2023-04-22T16:12:30.160Z,43.52
2023-04-22T16:14:57.942Z,43.15
2023-04-22T16:17:24.826Z,42.58
2023-04-22T16:19:51.697Z,43.51
2023-04-22T16:22:18.270Z,43.60
2023-04-22T16:24:44.912Z,43.74
2023-04-22T16:27:16.450Z,44.70
2023-04-22T16:29:43.803Z,44.83
2023-04-22T16:32:11.018Z,44.66
2023-04-22T16:34:38.395Z,44.51
2023-04-22T16:37:05.524Z,44.62
2023-04-22T16:39:32.382Z,44.23
2023-04-22T16:41:59.084Z,44.24
2023-04-22T16:44:25.814Z,44.15
2023-04-22T16:46:52.350Z,44.46
2023-04-22T16:49:18.971Z,45.27
2023-04-22T16:51:45.794Z,45.72
2023-04-22T16:54:12.352Z,45.82
2023-04-22T16:56:38.891Z,46.04
2023-04-22T16:59:05.524Z,45.25
2023-04-22T17:01:32.148Z,45.35
2023-04-22T17:03:58.920Z,46.00
2023-04-22T17:06:27.478Z,45.50
2023-04-22T17:08:54.202Z,45.77
2023-04-22T17:11:20.828Z,45.70
2023-04-22T17:13:47.378Z,45.84
2023-04-22T17:16:13.975Z,45.93
2023-04-22T17:18:40.582Z,46.31
2023-04-22T17:21:07.158Z,46.48
2023-04-22T17:23:33.841Z,46.82
2023-04-22T17:26:00.437Z,46.56
2023-04-22T17:28:27.155Z,47.01
2023-04-22T17:30:53.776Z,46.74
2023-04-22T17:33:20.347Z,46.60
2023-04-22T17:35:46.869Z,47.23
2023-04-22T17:38:14.180Z,46.64
2023-04-22T17:40:40.983Z,47.28
2023-04-22T17:43:07.534Z,46.59
2023-04-22T17:45:34.052Z,46.53
2023-04-22T17:48:00.789Z,47.54
2023-04-22T17:50:27.538Z,47.99
2023-04-22T17:52:54.518Z,47.58
2023-04-22T17:55:21.203Z,48.01
2023-04-22T17:57:47.760Z,48.44
2023-04-22T18:00:14.869Z,48.34
2023-04-22T18:02:42.240Z,48.85
2023-04-22T18:05:09.483Z,49.08
2023-04-22T18:07:36.247Z,49.56
2023-04-22T18:10:02.837Z,48.69
2023-04-22T18:12:30.829Z,49.52
2023-04-22T18:14:58.019Z,50.44
2023-04-22T18:17:25.062Z,49.96
2023-04-22T18:19:54.418Z,50.62
2023-04-22T18:22:25.742Z,50.42
2023-04-22T18:24:52.902Z,50.87
2023-04-22T18:27:19.531Z,50.29
2023-04-22T18:29:47.968Z,50.78
2023-04-22T18:32:16.729Z,50.74
2023-04-22T18:34:43.647Z,51.73
2023-04-22T18:37:10.664Z,51.52
2023-04-22T18:39:39.424Z,52.50
2023-04-22T18:42:06.292Z,51.67
2023-04-22T18:44:32.865Z,52.83
2023-04-22T18:46:59.490Z,53.11
2023-04-22T18:49:26.420Z,52.36
2023-04-22T18:51:52.954Z,52.36
2023-04-22T18:54:19.595Z,52.49
2023-04-22T18:56:46.213Z,52.24
2023-04-22T18:59:13.035Z,53.89
2023-04-22T19:01:39.635Z,52.61
2023-04-22T19:04:07.932Z,52.72
2023-04-22T19:06:34.634Z,53.60
2023-04-22T19:09:01.259Z,54.07
2023-04-22T19:11:27.853Z,54.07
2023-04-22T19:13:54.430Z,53.91
2023-04-22T19:16:21.837Z,53.45
2023-04-22T19:18:49.681Z,53.84
2023-04-22T19:21:16.317Z,53.17
2023-04-22T19:23:42.943Z,54.26
2023-04-22T19:26:09.693Z,54.48
2023-04-22T19:28:36.717Z,53.82
2023-04-22T19:31:04.953Z,53.86
2023-04-22T19:33:32.136Z,54.16
2023-04-22T19:35:58.657Z,54.99
2023-04-22T19:38:25.309Z,54.89
2023-04-22T19:40:51.924Z,54.47
2023-04-22T19:43:19.364Z,54.74
2023-04-22T19:45:47.004Z,55.09
2023-04-22T19:48:14.023Z,54.87
2023-04-22T19:50:43.260Z,55.57
2023-04-22T19:53:11.042Z,54.59
2023-04-22T19:55:38.257Z,55.53
2023-04-22T19:58:05.887Z,56.13
2023-04-22T20:00:33.027Z,55.81
2023-04-22T20:02:59.942Z,55.88
2023-04-22T20:05:27.471Z,56.36
2023-04-22T20:07:58.518Z,56.86
2023-04-22T20:10:26.484Z,56.39
2023-04-22T20:12:53.798Z,57.08
2023-04-22T20:15:20.752Z,56.64
2023-04-22T20:17:47.603Z,56.88
2023-04-22T20:20:17.555Z,57.63
2023-04-22T20:22:45.275Z,58.16
2023-04-22T20:25:14.510Z,57.28
2023-04-22T20:27:41.683Z,57.37
2023-04-22T20:30:11.387Z,57.10
2023-04-22T20:32:38.100Z,57.31
2023-04-22T20:35:06.694Z,57.88
2023-04-22T20:37:36.046Z,58.20
2023-04-22T20:40:05.668Z,57.57
2023-04-22T20:42:33.232Z,57.81
2023-04-22T20:44:59.775Z,58.31
2023-04-22T20:47:26.401Z,57.98
2023-04-22T20:49:52.990Z,58.72
2023-04-22T20:52:19.554Z,58.43
2023-04-22T20:54:46.442Z,58.57
2023-04-22T20:57:13.228Z,57.66
2023-04-22T20:59:39.751Z,58.38
2023-04-22T21:02:08.414Z,58.83
2023-04-22T21:04:35.140Z,58.81
2023-04-22T21:07:07.390Z,58.79
2023-04-22T21:09:34.627Z,58.52
2023-04-22T21:12:02.386Z,58.61
2023-04-22T21:14:29.147Z,59.25
2023-04-22T21:17:12.999Z,59.71
2023-04-22T21:19:46.761Z,59.06
2023-04-22T21:22:13.668Z,60.06
2023-04-22T21:24:40.970Z,59.98
2023-04-22T21:27:08.346Z,60.66
2023-04-22T21:29:35.310Z,61.80
2023-04-22T21:32:09.128Z,61.92
2023-04-22T21:34:36.847Z,62.01
2023-04-22T21:37:05.136Z,62.73
2023-04-22T21:39:31.806Z,63.05
2023-04-22T21:41:58.606Z,63.64
2023-04-22T21:44:25.570Z,63.85
2023-04-22T21:46:52.090Z,63.90
2023-04-22T21:49:20.487Z,64.19
2023-04-22T21:51:47.132Z,64.76
2023-04-22T21:54:13.745Z,64.63
2023-04-22T21:56:40.465Z,66.15
2023-04-22T21:59:07.009Z,65.80
2023-04-22T22:01:33.632Z,65.71
2023-04-22T22:04:00.401Z,65.46
2023-04-22T22:06:27.096Z,65.25
2023-04-22T22:08:54.699Z,66.54
2023-04-22T22:11:30.301Z,66.48
2023-04-22T22:13:58.275Z,67.25
2023-04-22T22:16:25.756Z,66.18
2023-04-22T22:18:52.678Z,67.09
2023-04-22T22:21:19.372Z,67.16
2023-04-22T22:23:45.954Z,68.26
2023-04-22T22:26:12.817Z,68.63
2023-04-22T22:28:39.627Z,68.29
2023-04-22T22:31:06.913Z,69.11
2023-04-22T22:33:33.550Z,69.42
2023-04-22T22:36:00.224Z,70.72
2023-04-22T22:38:26.942Z,70.58
2023-04-22T22:40:53.466Z,71.02
2023-04-22T22:43:20.038Z,71.84
2023-04-22T22:45:46.789Z,71.31
2023-04-22T22:48:13.440Z,72.98
2023-04-22T22:50:40.537Z,72.94
2023-04-22T22:53:07.129Z,72.77
2023-04-22T22:55:34.180Z,73.00
2023-04-22T22:58:00.961Z,73.05
2023-04-22T23:00:27.667Z,72.33
2023-04-22T23:02:54.736Z,73.10
2023-04-22T23:05:22.002Z,74.48
2023-04-22T23:07:48.784Z,73.80
2023-04-22T23:10:15.819Z,74.87
2023-04-22T23:12:42.960Z,74.93
2023-04-22T23:15:09.998Z,75.36
2023-04-22T23:17:36.885Z,74.79
2023-04-22T23:20:04.142Z,74.45
2023-04-22T23:22:32.224Z,75.73
2023-04-22T23:24:59.231Z,74.94
2023-04-22T23:27:26.101Z,74.72
2023-04-22T23:29:52.956Z,74.52
2023-04-22T23:32:20.606Z,74.44
2023-04-22T23:34:49.684Z,75.03
2023-04-22T23:37:18.930Z,75.28
2023-04-22T23:39:45.517Z,75.46
2023-04-22T23:42:12.050Z,75.03
2023-04-22T23:44:38.922Z,75.20
2023-04-22T23:47:05.918Z,74.93
2023-04-22T23:49:32.724Z,75.27
2023-04-22T23:51:59.587Z,75.59
2023-04-22T23:54:26.706Z,76.28
2023-04-22T23:56:53.821Z,75.91
2023-04-22T23:59:20.755Z,75.64
